createdAt,value
2018-12-18T00:00:31.570Z,14.90
2018-12-18T00:01:31.466Z,14.10
2018-12-18T00:02:31.443Z,14.70
2018-12-18T00:03:31.431Z,17.20
2018-12-18T00:04:31.421Z,16.50
2018-12-18T00:05:31.412Z,13.90
2018-12-18T00:06:31.419Z,15.00
2018-12-18T00:07:31.390Z,14.70
2018-12-18T00:08:31.383Z,14.60
2018-12-18T00:09:31.374Z,13.30
2018-12-18T00:10:31.361Z,17.20
2018-12-18T00:11:31.383Z,17.30
2018-12-18T00:12:31.349Z,15.40
2018-12-18T00:13:31.329Z,16.40
2018-12-18T00:14:31.324Z,17.10
2018-12-18T00:15:31.309Z,18.30
2018-12-18T00:16:31.298Z,14.20
2018-12-18T00:17:31.322Z,18.00
2018-12-18T00:18:31.275Z,20.80
2018-12-18T00:19:31.262Z,17.90
2018-12-18T00:20:31.281Z,16.80
2018-12-18T00:21:31.241Z,15.20
2018-12-18T00:22:31.256Z,17.00
2018-12-18T00:23:31.223Z,16.30
2018-12-18T00:24:31.225Z,16.00
2018-12-18T00:25:31.203Z,19.70
2018-12-18T00:26:31.190Z,17.20
2018-12-18T00:27:31.185Z,15.20
2018-12-18T00:28:31.185Z,16.60
2018-12-18T00:29:31.153Z,17.90
2018-12-18T00:30:31.156Z,21.60
2018-12-18T00:31:31.142Z,17.80
2018-12-18T00:32:31.126Z,17.10
2018-12-18T00:33:31.132Z,14.00
2018-12-18T00:34:31.108Z,15.10
2018-12-18T00:35:31.094Z,20.20
2018-12-18T00:36:31.091Z,18.50
2018-12-18T00:37:31.067Z,17.20
2018-12-18T00:38:31.084Z,16.80
2018-12-18T00:39:31.053Z,18.30
2018-12-18T00:40:31.058Z,17.70
2018-12-18T00:41:31.036Z,13.10
2018-12-18T00:42:31.015Z,15.30
2018-12-18T00:43:31.033Z,15.40
2018-12-18T00:44:31.000Z,17.70
2018-12-18T00:45:30.989Z,16.70
2018-12-18T00:46:30.976Z,17.30
2018-12-18T00:47:30.959Z,14.70
2018-12-18T00:48:30.956Z,12.60
2018-12-18T00:49:30.967Z,14.50
2018-12-18T00:50:30.930Z,13.80
2018-12-18T00:51:30.917Z,14.20
2018-12-18T00:52:30.965Z,17.50
2018-12-18T00:53:30.923Z,18.10
2018-12-18T00:54:30.902Z,16.50
2018-12-18T00:55:30.878Z,18.40
2018-12-18T00:56:30.868Z,16.10
2018-12-18T00:57:30.858Z,16.70
2018-12-18T00:58:30.845Z,14.10
2018-12-18T00:59:30.893Z,15.80
2018-12-18T01:00:30.825Z,14.90
2018-12-18T01:01:30.814Z,15.10
2018-12-18T01:02:30.851Z,14.80
2018-12-18T01:03:30.790Z,14.80
2018-12-18T01:04:30.792Z,19.70
2018-12-18T01:05:30.789Z,15.70
2018-12-18T01:06:30.762Z,14.30
2018-12-18T01:07:30.756Z,15.40
2018-12-18T01:08:30.767Z,17.60
2018-12-18T01:09:30.731Z,12.40
2018-12-18T01:10:30.751Z,13.70
2018-12-18T01:11:30.709Z,12.40
2018-12-18T01:12:30.728Z,14.20
2018-12-18T01:13:30.684Z,15.70
2018-12-18T01:14:30.682Z,17.60
2018-12-18T01:15:30.665Z,15.00
2018-12-18T01:16:30.708Z,15.70
2018-12-18T01:17:30.653Z,13.00
2018-12-18T01:18:30.652Z,15.40
2018-12-18T01:19:30.622Z,12.70
2018-12-18T01:20:30.648Z,13.90
2018-12-18T01:21:30.601Z,17.50
2018-12-18T01:22:30.595Z,15.50
2018-12-18T01:23:30.581Z,13.60
2018-12-18T01:24:30.567Z,15.60
2018-12-18T01:25:30.561Z,14.20
2018-12-18T01:26:30.583Z,14.60
2018-12-18T01:27:30.547Z,15.70
2018-12-18T01:28:30.527Z,17.30
2018-12-18T01:29:30.516Z,19.20
2018-12-18T01:30:30.517Z,13.10
2018-12-18T01:31:30.536Z,15.30
2018-12-18T01:32:30.487Z,17.30
2018-12-18T01:33:30.481Z,13.30
2018-12-18T01:34:30.465Z,15.40
2018-12-18T01:35:30.461Z,16.30
2018-12-18T01:36:30.471Z,16.90
2018-12-18T01:37:30.437Z,15.90
2018-12-18T01:38:30.421Z,17.40
2018-12-18T01:39:30.426Z,15.80
2018-12-18T01:40:30.399Z,15.50
2018-12-18T01:41:30.431Z,15.20
2018-12-18T01:42:30.384Z,15.40
2018-12-18T01:43:30.366Z,13.40
2018-12-18T01:44:30.369Z,12.50
2018-12-18T01:45:30.356Z,17.20
2018-12-18T01:46:30.377Z,18.40
2018-12-18T01:47:30.325Z,13.00
2018-12-18T01:48:30.331Z,14.50
2018-12-18T01:49:30.310Z,14.50
2018-12-18T01:50:30.292Z,14.30
2018-12-18T01:51:30.298Z,13.90
2018-12-18T01:52:30.327Z,14.30
2018-12-18T01:53:30.261Z,12.90
2018-12-18T01:54:30.254Z,15.50
2018-12-18T01:55:30.242Z,12.50
2018-12-18T01:56:30.236Z,14.90
2018-12-18T01:57:30.222Z,18.70
2018-12-18T01:58:30.229Z,14.20
2018-12-18T01:59:30.204Z,13.70
2018-12-18T02:00:30.195Z,14.70
2018-12-18T02:01:30.191Z,16.60
2018-12-18T02:02:30.166Z,13.40
2018-12-18T02:03:30.225Z,15.80
2018-12-18T02:04:30.159Z,14.10
2018-12-18T02:05:30.137Z,15.10
2018-12-18T02:06:30.127Z,13.00
2018-12-18T02:07:30.113Z,13.60
2018-12-18T02:08:30.110Z,15.20
2018-12-18T02:09:30.218Z,18.80
2018-12-18T02:10:30.084Z,17.70
2018-12-18T02:11:30.084Z,13.90
2018-12-18T02:12:30.059Z,18.90
2018-12-18T02:13:30.051Z,16.30
2018-12-18T02:14:30.047Z,13.50
2018-12-18T02:15:30.092Z,15.80
2018-12-18T02:16:30.020Z,11.60
2018-12-18T02:17:30.011Z,15.30
2018-12-18T02:18:29.997Z,15.30
2018-12-18T02:19:29.992Z,15.50
2018-12-18T02:20:29.979Z,15.30
2018-12-18T02:21:29.988Z,15.80
2018-12-18T02:22:29.978Z,14.00
2018-12-18T02:23:29.947Z,12.50
2018-12-18T02:24:29.937Z,14.70
2018-12-18T02:25:29.924Z,15.80
2018-12-18T02:26:29.931Z,15.40
2018-12-18T02:27:29.902Z,14.40
2018-12-18T02:28:29.893Z,12.30
2018-12-18T02:29:29.910Z,11.90
2018-12-18T02:30:29.866Z,13.00
2018-12-18T02:31:29.885Z,14.80
2018-12-18T02:32:29.861Z,14.30
2018-12-18T02:33:29.836Z,16.20
2018-12-18T02:34:29.828Z,13.00
2018-12-18T02:35:29.827Z,11.00
2018-12-18T02:36:29.802Z,13.80
2018-12-18T02:37:29.813Z,13.10
2018-12-18T02:38:29.785Z,13.40
2018-12-18T02:39:29.769Z,10.90
2018-12-18T02:40:29.757Z,9.60
2018-12-18T02:41:29.748Z,13.00
2018-12-18T02:42:29.737Z,12.70
2018-12-18T02:43:29.770Z,13.90
2018-12-18T02:44:29.718Z,13.10
2018-12-18T02:45:29.711Z,14.90
2018-12-18T02:46:29.714Z,11.80
2018-12-18T02:47:29.684Z,13.00
2018-12-18T02:48:29.697Z,13.30
2018-12-18T02:49:29.666Z,13.00
2018-12-18T02:50:29.652Z,13.60
2018-12-18T02:51:29.649Z,11.20
2018-12-18T02:52:29.634Z,13.30
2018-12-18T02:53:29.648Z,9.60
2018-12-18T02:54:29.617Z,10.50
2018-12-18T02:55:29.600Z,13.70
2018-12-18T02:56:29.596Z,11.40
2018-12-18T02:57:29.589Z,12.70
2018-12-18T02:58:29.586Z,12.60
2018-12-18T02:59:29.582Z,11.70
2018-12-18T03:00:29.560Z,13.30
2018-12-18T03:01:29.537Z,10.20
2018-12-18T03:02:29.526Z,13.60
2018-12-18T03:03:29.514Z,13.60
2018-12-18T03:04:29.524Z,14.20
2018-12-18T03:05:29.501Z,11.50
2018-12-18T03:06:29.509Z,10.90
2018-12-18T03:07:29.471Z,11.70
2018-12-18T03:08:29.461Z,11.80
2018-12-18T03:09:29.480Z,10.90
2018-12-18T03:10:29.438Z,13.50
2018-12-18T03:11:29.433Z,13.10
2018-12-18T03:12:29.427Z,13.30
2018-12-18T03:13:29.429Z,14.90
2018-12-18T03:14:29.395Z,11.40
2018-12-18T03:15:29.398Z,13.30
2018-12-18T03:16:29.374Z,13.60
2018-12-18T03:17:29.365Z,10.50
2018-12-18T03:18:29.358Z,11.00
2018-12-18T03:19:29.345Z,13.00
2018-12-18T03:20:29.350Z,13.00
2018-12-18T03:21:29.332Z,11.40
2018-12-18T03:22:29.319Z,10.90
2018-12-18T03:23:29.309Z,11.30
2018-12-18T03:24:29.287Z,11.70
2018-12-18T03:25:29.323Z,11.60
2018-12-18T03:26:29.269Z,9.40
2018-12-18T03:27:29.257Z,12.80
2018-12-18T03:28:29.257Z,9.70
2018-12-18T03:29:29.238Z,8.40
2018-12-18T03:30:29.255Z,12.40
2018-12-18T03:31:29.233Z,10.80
2018-12-18T03:32:29.217Z,10.90
2018-12-18T03:33:29.201Z,8.40
2018-12-18T03:34:29.188Z,9.00
2018-12-18T03:35:29.192Z,10.70
2018-12-18T03:36:29.165Z,8.70
2018-12-18T03:37:29.158Z,9.10
2018-12-18T03:38:29.142Z,10.30
2018-12-18T03:39:29.142Z,10.00
2018-12-18T03:40:29.125Z,9.50
2018-12-18T03:41:29.133Z,10.80
2018-12-18T03:42:29.095Z,8.90
2018-12-18T03:43:29.086Z,8.20
2018-12-18T03:44:29.103Z,10.00
2018-12-18T03:45:29.084Z,10.70
2018-12-18T03:46:29.080Z,9.80
2018-12-18T03:47:29.065Z,13.40
2018-12-18T03:48:29.034Z,9.70
2018-12-18T03:49:29.022Z,9.50
2018-12-18T03:50:29.018Z,9.00
2018-12-18T03:51:29.019Z,11.60
2018-12-18T03:52:29.000Z,7.90
2018-12-18T03:53:28.983Z,8.80
2018-12-18T03:54:28.983Z,9.50
2018-12-18T03:55:28.959Z,9.00
2018-12-18T03:56:28.975Z,11.60
2018-12-18T03:57:28.963Z,13.10
2018-12-18T03:58:28.926Z,9.00
2018-12-18T03:59:28.932Z,10.30
2018-12-18T04:00:28.906Z,9.10
2018-12-18T04:01:28.911Z,7.70
2018-12-18T04:02:28.897Z,8.20
2018-12-18T04:03:28.886Z,9.50
2018-12-18T04:04:35.338Z,8.70
2018-12-18T04:05:29.880Z,7.80
2018-12-18T04:06:28.843Z,9.20
2018-12-18T04:07:28.854Z,7.20
2018-12-18T04:08:28.832Z,7.00
2018-12-18T04:09:28.826Z,8.00
2018-12-18T04:10:28.807Z,8.90
2018-12-18T04:11:28.782Z,6.20
2018-12-18T04:12:28.786Z,10.00
2018-12-18T04:13:28.783Z,9.40
2018-12-18T04:14:28.754Z,9.50
2018-12-18T04:15:28.757Z,10.60
2018-12-18T04:16:28.737Z,8.60
2018-12-18T04:17:28.728Z,10.60
2018-12-18T04:18:28.729Z,8.60
2018-12-18T04:19:28.700Z,8.60
2018-12-18T04:20:28.711Z,9.80
2018-12-18T04:21:28.704Z,8.80
2018-12-18T04:22:28.672Z,11.10
2018-12-18T04:23:28.698Z,9.90
2018-12-18T04:24:28.645Z,9.20
2018-12-18T04:25:28.634Z,10.10
2018-12-18T04:26:28.622Z,6.80
2018-12-18T04:27:28.616Z,7.90
2018-12-18T04:28:28.621Z,7.20
2018-12-18T04:29:28.619Z,9.20
2018-12-18T04:30:28.576Z,7.90
2018-12-18T04:31:28.575Z,8.80
2018-12-18T04:32:28.554Z,9.80
2018-12-18T04:33:28.563Z,7.90
2018-12-18T04:34:28.561Z,8.90
2018-12-18T04:35:28.557Z,7.90
2018-12-18T04:36:28.515Z,9.10
2018-12-18T04:37:28.525Z,7.40
2018-12-18T04:38:28.495Z,7.60
2018-12-18T04:39:28.507Z,7.90
2018-12-18T04:40:28.526Z,8.50
2018-12-18T04:41:28.460Z,8.50
2018-12-18T04:42:28.458Z,8.70
2018-12-18T04:43:28.444Z,8.50
2018-12-18T04:44:28.426Z,6.60
2018-12-18T04:45:28.441Z,6.60
2018-12-18T04:46:28.410Z,7.90
2018-12-18T04:47:28.397Z,7.70
2018-12-18T04:48:28.388Z,10.70
2018-12-18T04:49:28.401Z,9.60
2018-12-18T04:50:28.404Z,9.00
2018-12-18T04:51:28.354Z,8.60
2018-12-18T04:52:28.348Z,7.70
2018-12-18T04:53:28.336Z,8.10
2018-12-18T04:54:28.321Z,7.50
2018-12-18T04:55:28.333Z,8.70
2018-12-18T04:56:28.300Z,9.40
2018-12-18T04:57:28.287Z,8.80
2018-12-18T04:58:28.279Z,7.60
2018-12-18T04:59:28.266Z,8.50
2018-12-18T05:00:28.290Z,8.00
2018-12-18T05:01:28.245Z,10.90
2018-12-18T05:02:28.242Z,8.20
2018-12-18T05:03:28.221Z,7.90
2018-12-18T05:04:28.213Z,10.80
2018-12-18T05:05:28.233Z,8.00
2018-12-18T05:06:28.191Z,9.70
2018-12-18T05:07:28.177Z,14.30
2018-12-18T05:08:28.182Z,8.40
2018-12-18T05:09:28.154Z,8.60
2018-12-18T05:10:28.148Z,8.80
2018-12-18T05:11:28.156Z,9.40
2018-12-18T05:12:28.120Z,9.00
2018-12-18T05:13:28.111Z,8.40
2018-12-18T05:14:28.108Z,10.40
2018-12-18T05:15:28.092Z,8.50
2018-12-18T05:16:28.087Z,10.10
2018-12-18T05:17:28.105Z,9.60
2018-12-18T05:18:28.057Z,8.70
2018-12-18T05:19:28.051Z,9.60
2018-12-18T05:20:28.034Z,9.20
2018-12-18T05:21:28.026Z,7.30
2018-12-18T05:22:28.035Z,9.90
2018-12-18T05:23:28.032Z,9.70
2018-12-18T05:24:28.009Z,7.60
2018-12-18T05:25:28.018Z,10.00
2018-12-18T05:26:27.976Z,9.80
2018-12-18T05:27:27.987Z,12.70
2018-12-18T05:28:27.953Z,10.10
2018-12-18T05:29:27.962Z,8.80
2018-12-18T05:30:27.941Z,14.60
2018-12-18T05:31:27.915Z,13.20
2018-12-18T05:32:27.921Z,10.00
2018-12-18T05:33:27.924Z,10.20
2018-12-18T05:34:27.886Z,9.20
2018-12-18T05:35:27.885Z,9.30
2018-12-18T05:36:27.869Z,7.60
2018-12-18T05:37:27.879Z,10.70
2018-12-18T05:38:27.849Z,12.20
2018-12-18T05:39:27.835Z,9.80
2018-12-18T05:40:27.819Z,13.10
2018-12-18T05:41:27.803Z,8.50
2018-12-18T05:42:27.842Z,10.90
2018-12-18T05:43:28.604Z,10.10
2018-12-18T05:44:27.775Z,9.70
2018-12-18T05:45:27.767Z,9.50
2018-12-18T05:46:27.785Z,7.80
2018-12-18T05:47:27.744Z,10.50
2018-12-18T05:48:27.751Z,11.40
2018-12-18T05:49:27.724Z,11.30
2018-12-18T05:50:27.707Z,9.10
2018-12-18T05:51:27.717Z,10.00
2018-12-18T05:52:27.721Z,10.30
2018-12-18T05:53:27.708Z,12.50
2018-12-18T05:54:27.680Z,9.90
2018-12-18T05:55:27.658Z,11.00
2018-12-18T05:56:27.658Z,9.20
2018-12-18T05:57:27.635Z,11.20
2018-12-18T05:58:27.626Z,11.50
2018-12-18T05:59:27.629Z,13.80
2018-12-18T06:00:27.602Z,12.60
2018-12-18T06:01:27.590Z,12.90
2018-12-18T06:02:27.591Z,10.00
2018-12-18T06:03:27.585Z,11.20
2018-12-18T06:04:27.583Z,12.30
2018-12-18T06:05:27.548Z,10.40
2018-12-18T06:06:27.548Z,9.90
2018-12-18T06:07:27.526Z,15.70
2018-12-18T06:08:27.516Z,14.30
2018-12-18T06:09:27.524Z,13.00
2018-12-18T06:10:27.496Z,11.20
2018-12-18T06:11:27.501Z,11.40
2018-12-18T06:12:27.475Z,11.90
2018-12-18T06:13:27.475Z,9.40
2018-12-18T06:14:27.469Z,12.20
2018-12-18T06:15:27.444Z,14.60
2018-12-18T06:16:27.430Z,12.90
2018-12-18T06:17:27.420Z,10.80
2018-12-18T06:18:27.470Z,17.10
2018-12-18T06:19:27.412Z,11.00
2018-12-18T06:20:27.385Z,12.80
2018-12-18T06:21:27.394Z,10.20
2018-12-18T06:22:27.368Z,10.90
2018-12-18T06:23:27.354Z,12.30
2018-12-18T06:24:27.373Z,9.50
2018-12-18T06:25:27.336Z,12.50
2018-12-18T06:26:27.356Z,11.20
2018-12-18T06:27:27.313Z,10.80
2018-12-18T06:28:27.299Z,14.70
2018-12-18T06:29:27.367Z,10.70
2018-12-18T06:30:27.299Z,13.70
2018-12-18T06:31:27.286Z,9.50
2018-12-18T06:32:27.287Z,10.30
2018-12-18T06:33:27.284Z,10.40
2018-12-18T06:34:27.237Z,9.00
2018-12-18T06:35:27.248Z,13.50
2018-12-18T06:36:27.216Z,12.70
2018-12-18T06:37:27.888Z,9.50
2018-12-18T06:38:27.208Z,9.80
2018-12-18T06:39:27.197Z,11.80
2018-12-18T06:40:27.185Z,10.80
2018-12-18T06:41:27.190Z,12.60
2018-12-18T06:42:27.146Z,11.90
2018-12-18T06:43:27.152Z,8.90
2018-12-18T06:44:27.166Z,15.70
2018-12-18T06:45:27.116Z,14.60
2018-12-18T06:46:27.126Z,10.70
2018-12-18T06:47:27.098Z,12.70
2018-12-18T06:48:27.089Z,10.80
2018-12-18T06:49:27.091Z,11.90
2018-12-18T06:50:27.087Z,10.90
2018-12-18T06:51:27.054Z,12.10
2018-12-18T06:52:27.079Z,12.50
2018-12-18T06:53:27.033Z,11.80
2018-12-18T06:54:27.029Z,13.70
2018-12-18T06:55:27.016Z,11.20
2018-12-18T06:56:26.997Z,12.80
2018-12-18T06:57:27.012Z,11.70
2018-12-18T06:58:26.977Z,14.30
2018-12-18T06:59:26.980Z,9.70
2018-12-18T07:00:27.001Z,10.10
2018-12-18T07:01:27.009Z,10.90
2018-12-18T07:02:26.958Z,10.70
2018-12-18T07:03:26.930Z,12.20
2018-12-18T07:04:26.917Z,11.70
2018-12-18T07:05:26.902Z,11.00
2018-12-18T07:06:26.889Z,11.10
2018-12-18T07:07:26.901Z,11.60
2018-12-18T07:08:26.881Z,11.50
2018-12-18T07:09:26.923Z,8.90
2018-12-18T07:10:26.861Z,6.80
2018-12-18T07:11:26.847Z,13.50
2018-12-18T07:12:26.868Z,8.70
2018-12-18T07:13:26.852Z,11.10
2018-12-18T07:14:26.805Z,11.20
2018-12-18T07:15:26.800Z,14.40
2018-12-18T07:16:26.782Z,9.10
2018-12-18T07:17:26.775Z,10.00
2018-12-18T07:18:26.796Z,11.20
2018-12-18T07:19:26.754Z,9.80
2018-12-18T07:20:26.752Z,8.50
2018-12-18T07:21:26.735Z,10.90
2018-12-18T07:22:26.723Z,12.10
2018-12-18T07:23:26.735Z,9.10
2018-12-18T07:24:26.730Z,14.90
2018-12-18T07:25:26.689Z,9.20
2018-12-18T07:26:26.684Z,10.00
2018-12-18T07:27:26.665Z,11.30
2018-12-18T07:28:26.692Z,10.30
2018-12-18T07:29:26.667Z,11.60
2018-12-18T07:30:26.646Z,11.80
2018-12-18T07:31:26.638Z,13.20
2018-12-18T07:32:26.615Z,13.80
2018-12-18T07:33:26.631Z,11.30
2018-12-18T07:34:26.600Z,11.10
2018-12-18T07:35:26.601Z,14.50
2018-12-18T07:36:26.593Z,12.00
2018-12-18T07:37:26.571Z,13.50
2018-12-18T07:38:26.706Z,9.80
2018-12-18T07:39:26.584Z,10.30
2018-12-18T07:40:27.027Z,12.50
2018-12-18T07:41:26.879Z,13.50
2018-12-18T07:42:26.504Z,12.80
2018-12-18T07:43:26.495Z,11.00
2018-12-18T07:44:26.516Z,10.30
2018-12-18T07:45:26.481Z,12.70
2018-12-18T07:46:26.463Z,11.40
2018-12-18T07:47:26.478Z,11.20
2018-12-18T07:48:26.437Z,14.40
2018-12-18T07:49:26.445Z,10.80
2018-12-18T07:50:26.422Z,9.20
2018-12-18T07:51:26.415Z,7.30
2018-12-18T07:52:26.403Z,10.30
2018-12-18T07:53:26.385Z,9.00
2018-12-18T07:54:26.392Z,12.30
2018-12-18T07:55:26.373Z,11.70
2018-12-18T07:56:26.352Z,8.40
2018-12-18T07:57:26.350Z,11.40
2018-12-18T07:58:26.339Z,9.80
2018-12-18T07:59:26.342Z,12.60
2018-12-18T08:00:26.312Z,10.30
2018-12-18T08:01:26.299Z,9.50
2018-12-18T08:02:26.292Z,8.40
2018-12-18T08:03:26.279Z,9.80
2018-12-18T08:04:26.280Z,6.60
2018-12-18T08:05:29.844Z,10.70
2018-12-18T08:06:26.245Z,10.80
2018-12-18T08:07:26.240Z,8.20
2018-12-18T08:08:26.223Z,10.60
2018-12-18T08:09:26.215Z,6.10
2018-12-18T08:10:26.226Z,8.50
2018-12-18T08:11:26.207Z,9.20
2018-12-18T08:12:26.186Z,8.00
2018-12-18T08:13:26.170Z,9.10
2018-12-18T08:14:26.157Z,12.20
2018-12-18T08:15:26.181Z,11.10
2018-12-18T08:16:26.140Z,9.10
2018-12-18T08:17:26.126Z,11.00
2018-12-18T08:18:26.112Z,12.30
2018-12-18T08:19:26.104Z,10.10
2018-12-18T08:20:35.713Z,15.00
2018-12-18T08:21:33.624Z,8.50
2018-12-18T08:22:33.621Z,9.30
2018-12-18T08:23:33.614Z,10.50
2018-12-18T08:24:33.587Z,13.10
2018-12-18T08:25:26.039Z,10.20
2018-12-18T08:26:35.828Z,12.60
2018-12-18T08:27:33.564Z,11.70
2018-12-18T08:28:33.550Z,9.50
2018-12-18T08:29:33.534Z,11.80
2018-12-18T08:30:25.987Z,10.10
2018-12-18T08:31:25.997Z,11.40
2018-12-18T08:32:33.505Z,9.00
2018-12-18T08:33:33.493Z,9.00
2018-12-18T08:34:25.942Z,11.40
2018-12-18T08:35:25.930Z,10.00
2018-12-18T08:36:25.942Z,10.40
2018-12-18T08:37:25.910Z,16.90
2018-12-18T08:38:25.901Z,12.50
2018-12-18T08:39:25.919Z,16.40
2018-12-18T08:40:25.877Z,10.50
2018-12-18T08:41:25.887Z,12.50
2018-12-18T08:42:25.863Z,13.40
2018-12-18T08:43:25.845Z,10.00
2018-12-18T08:44:25.836Z,9.30
2018-12-18T08:45:25.854Z,12.10
2018-12-18T08:46:25.831Z,10.40
2018-12-18T08:47:25.802Z,9.20
2018-12-18T08:48:25.795Z,11.40
2018-12-18T08:49:25.787Z,10.00
2018-12-18T08:50:25.804Z,9.30
2018-12-18T08:51:25.796Z,7.20
2018-12-18T08:52:25.762Z,9.60
2018-12-18T08:53:25.745Z,7.00
2018-12-18T08:54:25.753Z,10.90
2018-12-18T08:55:25.734Z,10.60
2018-12-18T08:56:25.729Z,11.50
2018-12-18T08:57:25.721Z,8.20
2018-12-18T08:58:25.687Z,11.40
2018-12-18T08:59:25.695Z,11.30
2018-12-18T09:00:25.689Z,10.70
2018-12-18T09:01:25.663Z,10.80
2018-12-18T09:02:25.672Z,11.50
2018-12-18T09:03:25.684Z,9.10
2018-12-18T09:04:25.624Z,7.60
2018-12-18T09:05:25.614Z,8.60
2018-12-18T09:06:25.753Z,9.90
2018-12-18T09:07:25.599Z,9.40
2018-12-18T09:08:25.760Z,11.90
2018-12-18T09:09:25.580Z,9.70
2018-12-18T09:10:25.563Z,11.30
2018-12-18T09:11:25.578Z,11.50
2018-12-18T09:12:25.542Z,7.40
2018-12-18T09:13:25.605Z,12.90
2018-12-18T09:14:25.532Z,12.10
2018-12-18T09:15:25.516Z,9.40
2018-12-18T09:16:25.496Z,9.20
2018-12-18T09:17:25.562Z,7.90
2018-12-18T09:18:25.515Z,7.80
2018-12-18T09:19:25.473Z,9.80
2018-12-18T09:20:25.453Z,11.10
2018-12-18T09:21:25.468Z,8.70
2018-12-18T09:22:25.430Z,12.40
2018-12-18T09:23:25.497Z,7.90
2018-12-18T09:24:25.427Z,10.00
2018-12-18T09:25:25.427Z,10.80
2018-12-18T09:26:25.410Z,12.90
2018-12-18T09:27:25.390Z,11.80
2018-12-18T09:28:25.398Z,12.10
2018-12-18T09:29:25.373Z,9.90
2018-12-18T09:30:25.361Z,10.10
2018-12-18T09:31:25.348Z,9.50
2018-12-18T09:32:25.371Z,9.30
2018-12-18T09:33:25.341Z,9.00
2018-12-18T09:34:25.309Z,10.10
2018-12-18T09:35:25.330Z,9.10
2018-12-18T09:36:25.291Z,9.50
2018-12-18T09:37:25.292Z,6.70
2018-12-18T09:38:25.260Z,7.80
2018-12-18T09:39:25.302Z,8.00
2018-12-18T09:40:25.246Z,8.80
2018-12-18T09:41:25.251Z,7.40
2018-12-18T09:42:25.224Z,8.00
2018-12-18T09:43:25.218Z,9.30
2018-12-18T09:44:25.215Z,11.00
2018-12-18T09:45:25.198Z,8.50
2018-12-18T09:46:25.174Z,9.40
2018-12-18T09:47:25.170Z,10.60
2018-12-18T09:48:25.179Z,10.80
2018-12-18T09:49:25.170Z,9.50
2018-12-18T09:50:25.132Z,9.50
2018-12-18T09:51:25.126Z,8.90
2018-12-18T09:52:25.113Z,9.40
2018-12-18T09:53:25.115Z,7.80
2018-12-18T09:54:25.115Z,7.00
2018-12-18T09:55:25.079Z,9.40
2018-12-18T09:56:25.091Z,10.60
2018-12-18T09:57:25.058Z,13.20
2018-12-18T09:58:25.048Z,11.90
2018-12-18T09:59:25.062Z,11.60
2018-12-18T10:00:25.054Z,9.20
2018-12-18T10:01:25.017Z,9.10
2018-12-18T10:02:25.005Z,7.90
2018-12-18T10:03:25.009Z,8.90
2018-12-18T10:04:25.102Z,12.00
2018-12-18T10:05:25.014Z,12.30
2018-12-18T10:06:24.983Z,11.80
2018-12-18T10:07:24.960Z,9.20
2018-12-18T10:08:24.944Z,6.30
2018-12-18T10:09:25.014Z,9.50
2018-12-18T10:10:24.980Z,6.70
2018-12-18T10:11:24.922Z,7.00
2018-12-18T10:12:24.899Z,10.90
2018-12-18T10:13:24.891Z,5.40
2018-12-18T10:14:24.917Z,6.40
2018-12-18T10:15:24.867Z,5.50
2018-12-18T10:16:24.862Z,11.50
2018-12-18T10:17:24.927Z,8.70
2018-12-18T10:18:24.836Z,6.50
2018-12-18T10:19:24.839Z,6.80
2018-12-18T10:20:24.818Z,6.20
2018-12-18T10:21:24.804Z,9.00
2018-12-18T10:22:24.829Z,10.40
2018-12-18T10:23:24.795Z,7.90
2018-12-18T10:24:24.825Z,9.00
2018-12-18T10:25:24.763Z,7.10
2018-12-18T10:26:24.767Z,9.00
2018-12-18T10:27:24.754Z,9.00
2018-12-18T10:28:24.779Z,9.70
2018-12-18T10:29:24.716Z,8.40
2018-12-18T10:30:24.722Z,6.20
2018-12-18T10:31:24.695Z,8.00
2018-12-18T10:32:24.690Z,7.00
2018-12-18T10:33:24.686Z,6.60
2018-12-18T10:34:24.663Z,9.20
2018-12-18T10:35:24.674Z,7.30
2018-12-18T10:36:24.652Z,8.20
2018-12-18T10:37:24.656Z,8.00
2018-12-18T10:38:24.618Z,9.80
2018-12-18T10:39:24.637Z,8.30
2018-12-18T10:40:24.605Z,8.40
2018-12-18T10:41:24.642Z,10.50
2018-12-18T10:42:24.574Z,9.20
2018-12-18T10:43:24.567Z,7.80
2018-12-18T10:44:24.576Z,8.10
2018-12-18T10:45:24.541Z,7.80
2018-12-18T10:46:24.586Z,10.20
2018-12-18T10:47:24.522Z,9.60
2018-12-18T10:48:24.511Z,10.60
2018-12-18T10:49:24.509Z,8.60
2018-12-18T10:50:24.504Z,10.40
2018-12-18T10:51:24.502Z,8.60
2018-12-18T10:52:24.488Z,11.20
2018-12-18T10:53:24.466Z,7.20
2018-12-18T10:54:24.443Z,8.30
2018-12-18T10:55:24.436Z,7.00
2018-12-18T10:56:24.466Z,9.30
2018-12-18T10:57:24.416Z,6.20
2018-12-18T10:58:24.433Z,7.20
2018-12-18T10:59:24.396Z,8.70
2018-12-18T11:00:24.391Z,10.10
2018-12-18T11:01:24.392Z,8.50
2018-12-18T11:02:24.394Z,8.00
2018-12-18T11:03:24.356Z,10.50
2018-12-18T11:04:24.381Z,7.50
2018-12-18T11:05:24.331Z,6.30
2018-12-18T11:06:24.339Z,8.40
2018-12-18T11:07:24.310Z,9.20
2018-12-18T11:08:24.324Z,8.60
2018-12-18T11:09:24.285Z,8.90
2018-12-18T11:10:24.273Z,10.10
2018-12-18T11:11:24.288Z,8.30
2018-12-18T11:12:24.271Z,9.60
2018-12-18T11:13:24.249Z,9.10
2018-12-18T11:14:24.259Z,8.30
2018-12-18T11:15:24.220Z,9.40
2018-12-18T11:16:24.207Z,8.40
2018-12-18T11:17:24.219Z,5.40
2018-12-18T11:18:24.189Z,9.80
2018-12-18T11:19:24.191Z,7.60
2018-12-18T11:20:24.190Z,10.20
2018-12-18T11:21:24.174Z,8.80
2018-12-18T11:22:24.174Z,6.20
2018-12-18T11:23:24.131Z,8.60
2018-12-18T11:24:24.145Z,6.50
2018-12-18T11:25:24.140Z,6.70
2018-12-18T11:26:24.138Z,11.20
2018-12-18T11:27:24.139Z,9.30
2018-12-18T11:28:24.083Z,8.30
2018-12-18T11:29:24.077Z,9.30
2018-12-18T11:30:24.064Z,6.40
2018-12-18T11:31:24.048Z,8.00
2018-12-18T11:32:24.045Z,7.30
2018-12-18T11:33:24.042Z,9.20
2018-12-18T11:34:24.021Z,9.70
2018-12-18T11:35:24.002Z,5.00
2018-12-18T11:36:23.994Z,10.10
2018-12-18T11:37:24.972Z,5.20
2018-12-18T11:38:23.990Z,7.30
2018-12-18T11:39:23.983Z,5.80
2018-12-18T11:40:23.962Z,6.70
2018-12-18T11:41:23.944Z,7.70
2018-12-18T11:42:23.939Z,6.80
2018-12-18T11:43:23.941Z,9.40
2018-12-18T11:44:23.915Z,9.20
2018-12-18T11:45:23.915Z,9.50
2018-12-18T11:46:23.882Z,10.20
2018-12-18T11:47:23.897Z,8.20
2018-12-18T11:48:23.874Z,6.80
2018-12-18T11:49:23.924Z,9.10
2018-12-18T11:50:23.869Z,7.50
2018-12-18T11:51:23.833Z,5.00
2018-12-18T11:52:23.826Z,6.10
2018-12-18T11:53:23.839Z,7.40
2018-12-18T11:54:23.816Z,7.70
2018-12-18T11:55:23.831Z,7.30
2018-12-18T11:56:23.798Z,11.00
2018-12-18T11:57:23.770Z,7.30
2018-12-18T11:58:23.764Z,8.70
2018-12-18T11:59:23.772Z,9.60
2018-12-18T12:00:23.782Z,8.70
2018-12-18T12:01:23.750Z,8.10
2018-12-18T12:02:23.714Z,6.80
2018-12-18T12:03:23.706Z,8.30
2018-12-18T12:04:23.713Z,10.80
2018-12-18T12:05:23.730Z,7.90
2018-12-18T12:06:23.679Z,9.40
2018-12-18T12:07:23.665Z,5.50
2018-12-18T12:08:23.647Z,5.70
2018-12-18T12:09:23.708Z,8.70
2018-12-18T12:10:23.637Z,6.50
2018-12-18T12:11:23.617Z,7.80
2018-12-18T12:12:23.653Z,7.50
2018-12-18T12:13:23.598Z,7.20
2018-12-18T12:14:23.631Z,8.20
2018-12-18T12:15:23.592Z,9.50
2018-12-18T12:16:23.640Z,7.10
2018-12-18T12:17:23.554Z,6.40
2018-12-18T12:18:23.571Z,7.80
2018-12-18T12:19:23.565Z,6.80
2018-12-18T12:20:23.524Z,5.50
2018-12-18T12:21:23.543Z,7.60
2018-12-18T12:22:23.518Z,7.80
2018-12-18T12:23:23.491Z,6.60
2018-12-18T12:24:23.476Z,8.00
2018-12-18T12:25:23.536Z,6.60
2018-12-18T12:26:23.454Z,8.70
2018-12-18T12:27:23.452Z,7.80
2018-12-18T12:28:23.434Z,7.90
2018-12-18T12:29:23.472Z,9.90
2018-12-18T12:30:23.415Z,9.80
2018-12-18T12:31:23.399Z,7.60
2018-12-18T12:32:23.392Z,7.10
2018-12-18T12:33:23.385Z,6.00
2018-12-18T12:34:23.376Z,9.30
2018-12-18T12:35:23.422Z,6.60
2018-12-18T12:36:29.470Z,7.10
2018-12-18T12:37:24.369Z,7.40
2018-12-18T12:38:23.342Z,6.90
2018-12-18T12:39:23.312Z,9.60
2018-12-18T12:40:23.322Z,7.10
2018-12-18T12:41:23.292Z,7.40
2018-12-18T12:42:23.286Z,7.80
2018-12-18T12:43:23.272Z,4.30
2018-12-18T12:44:23.261Z,8.50
2018-12-18T12:45:23.324Z,9.60
2018-12-18T12:46:23.269Z,6.40
2018-12-18T12:47:23.254Z,8.10
2018-12-18T12:48:23.222Z,8.60
2018-12-18T12:49:23.208Z,8.00
2018-12-18T12:50:23.251Z,5.60
2018-12-18T12:51:23.188Z,9.30
2018-12-18T12:52:23.177Z,9.70
2018-12-18T12:53:23.161Z,6.80
2018-12-18T12:54:23.153Z,7.30
2018-12-18T12:55:23.174Z,7.70
2018-12-18T12:56:23.165Z,8.00
2018-12-18T12:57:23.983Z,8.30
2018-12-18T12:58:23.106Z,7.30
2018-12-18T12:59:23.108Z,8.90
2018-12-18T13:00:23.138Z,7.80
2018-12-18T13:01:23.117Z,6.20
2018-12-18T13:02:23.076Z,10.10
2018-12-18T13:03:23.068Z,7.40
2018-12-18T13:04:23.045Z,8.50